Time;durP1;ratioP1;P1;durP2;ratioP2;P2;SDS_P1;SDS_P2;PMS_P1;PMS_P2;Temp;Humidity;BMP_temperature;BMP_pressure;BME280_temperature;BME280_humidity;BME280_pressure;Samples;Min_cycle;Max_cycle;Signal;HPM_P1;HPM_P2
2021/10/09 00:01:05;;;;;;;34.63;26.77;;;;;;;;;;5049103;28;20017;-85
2021/10/09 00:03:30;;;;;;;51.67;34.08;;;;;;;;;;5050060;28;20029;-85
2021/10/09 00:05:56;;;;;;;30.30;23.50;;;;;;;;;;5049852;28;20484;-85
2021/10/09 00:08:21;;;;;;;41.45;28.83;;;;;;;;;;5049931;28;20025;-85
2021/10/09 00:10:46;;;;;;;30.70;22.42;;;;;;;;;;5049864;28;20017;-85
2021/10/09 00:13:12;;;;;;;33.05;26.15;;;;;;;;;;5049975;28;20060;-85
2021/10/09 00:15:38;;;;;;;50.33;31.67;;;;;;;;;;5049723;28;20468;-85
2021/10/09 00:18:03;;;;;;;40.85;27.60;;;;;;;;;;5049843;28;20096;-85
2021/10/09 00:20:29;;;;;;;29.65;24.45;;;;;;;;;;5049655;28;20322;-85
2021/10/09 00:22:54;;;;;;;30.17;25.50;;;;;;;;;;5049864;28;20024;-85
2021/10/09 00:25:20;;;;;;;48.42;32.90;;;;;;;;;;5050088;28;20045;-85
2021/10/09 00:27:46;;;;;;;30.25;25.30;;;;;;;;;;5049778;28;20062;-85
2021/10/09 00:30:11;;;;;;;32.95;25.42;;;;;;;;;;5049888;28;20024;-85
2021/10/09 00:32:36;;;;;;;27.05;23.70;;;;;;;;;;5028723;28;20845;-85
2021/10/09 00:35:02;;;;;;;68.57;34.63;;;;;;;;;;5012782;28;20025;-85
2021/10/09 00:37:27;;;;;;;32.72;26.48;;;;;;;;;;5011975;28;20025;-85
2021/10/09 00:39:53;;;;;;;62.50;36.28;;;;;;;;;;5011816;28;20040;-85
2021/10/09 00:42:18;;;;;;;48.67;29.40;;;;;;;;;;5029761;28;20014;-85
2021/10/09 00:44:44;;;;;;;35.08;27.48;;;;;;;;;;5029664;28;20035;-85
2021/10/09 00:47:09;;;;;;;36.60;29.10;;;;;;;;;;5029516;28;20029;-84
2021/10/09 00:49:34;;;;;;;45.20;31.40;;;;;;;;;;5011736;28;20021;-85
2021/10/09 00:52:02;;;;;;;37.23;29.40;;;;;;;;;;5029603;28;20682;-85
2021/10/09 00:54:28;;;;;;;53.15;35.10;;;;;;;;;;5029550;28;20256;-85
2021/10/09 00:56:56;;;;;;;64.50;38.63;;;;;;;;;;5011820;28;20495;-85
2021/10/09 00:59:24;;;;;;;44.20;29.88;;;;;;;;;;5029647;28;20030;-85
2021/10/09 01:01:50;;;;;;;53.58;36.53;;;;;;;;;;5015142;28;20029;-85
2021/10/09 01:04:17;;;;;;;51.03;32.95;;;;;;;;;;5015682;28;20869;-85
2021/10/09 01:06:42;;;;;;;55.55;35.70;;;;;;;;;;5015122;28;20025;-85
2021/10/09 01:09:07;;;;;;;59.00;35.93;;;;;;;;;;5033537;28;20028;-85
2021/10/09 01:11:33;;;;;;;52.27;33.43;;;;;;;;;;5050914;28;20665;-85
2021/10/09 01:13:58;;;;;;;57.33;36.88;;;;;;;;;;5053305;28;20314;-85
2021/10/09 01:16:24;;;;;;;53.33;33.75;;;;;;;;;;5052987;28;20028;-85
2021/10/09 01:18:50;;;;;;;53.03;35.20;;;;;;;;;;5052945;28;20033;-85
2021/10/09 01:21:15;;;;;;;40.58;27.85;;;;;;;;;;5034893;28;20468;-85
2021/10/09 01:23:41;;;;;;;45.00;29.67;;;;;;;;;;5035196;28;20097;-84
2021/10/09 01:26:07;;;;;;;57.93;35.03;;;;;;;;;;5053254;28;20067;-85
2021/10/09 01:28:32;;;;;;;41.83;28.08;;;;;;;;;;5053316;28;20317;-85
2021/10/09 01:30:57;;;;;;;34.43;27.53;;;;;;;;;;5038830;28;20388;-85
2021/10/09 01:33:22;;;;;;;36.25;27.65;;;;;;;;;;5052774;28;20260;-85
2021/10/09 01:35:49;;;;;;;67.17;37.70;;;;;;;;;;5034809;28;20025;-85
2021/10/09 01:38:15;;;;;;;75.03;39.58;;;;;;;;;;5035112;28;20056;-85
2021/10/09 01:40:40;;;;;;;51.00;33.97;;;;;;;;;;5035166;28;20075;-85
2021/10/09 01:43:12;;;;;;;68.90;38.33;;;;;;;;;;5035391;28;20074;-85
2021/10/09 01:45:38;;;;;;;55.03;34.33;;;;;;;;;;5052910;28;20290;-85
2021/10/09 01:48:03;;;;;;;64.25;37.00;;;;;;;;;;5055587;28;20017;-85
2021/10/09 01:50:29;;;;;;;50.28;34.00;;;;;;;;;;5034103;28;20105;-85
2021/10/09 01:52:54;;;;;;;85.07;41.38;;;;;;;;;;5034369;28;20029;-85
2021/10/09 01:55:19;;;;;;;111.70;46.43;;;;;;;;;;5052845;28;20514;-85
2021/10/09 01:57:44;;;;;;;42.85;30.70;;;;;;;;;;5034903;28;20279;-85
2021/10/09 02:00:10;;;;;;;64.07;35.73;;;;;;;;;;5034931;28;20032;-85
2021/10/09 02:02:35;;;;;;;80.88;39.42;;;;;;;;;;5052757;28;20283;-85
2021/10/09 02:05:00;;;;;;;65.15;36.90;;;;;;;;;;5052646;28;20021;-85
2021/10/09 02:07:26;;;;;;;58.07;34.10;;;;;;;;;;5035342;28;20427;-86
2021/10/09 02:09:51;;;;;;;55.45;34.10;;;;;;;;;;5034311;28;20775;-85
2021/10/09 02:12:17;;;;;;;45.60;30.92;;;;;;;;;;5051405;28;20025;-85
2021/10/09 02:14:57;;;;;;;32.85;23.85;;;;;;;;;;5034503;28;20049;-85
2021/10/09 02:28:00;;;;;;;37.80;25.13;;;;;;;;;;5052463;28;20409;-86
2021/10/09 02:30:25;;;;;;;61.72;35.22;;;;;;;;;;5034383;28;20025;-85
2021/10/09 02:32:50;;;;;;;39.67;28.05;;;;;;;;;;5052227;28;20024;-85
2021/10/09 02:35:15;;;;;;;39.10;28.10;;;;;;;;;;5052270;28;20503;-85
2021/10/09 02:37:40;;;;;;;43.03;27.90;;;;;;;;;;5052070;28;20032;-85
2021/10/09 02:40:06;;;;;;;57.57;32.23;;;;;;;;;;5034200;28;20398;-85
2021/10/09 02:42:31;;;;;;;30.35;23.85;;;;;;;;;;5052595;28;20267;-85
2021/10/09 02:44:56;;;;;;;33.40;24.47;;;;;;;;;;5034067;28;20021;-85
2021/10/09 02:47:22;;;;;;;46.75;28.40;;;;;;;;;;5033850;28;20925;-85
2021/10/09 02:49:47;;;;;;;65.40;34.97;;;;;;;;;;5051980;28;20456;-85
2021/10/09 02:52:12;;;;;;;52.67;30.58;;;;;;;;;;5033934;28;20047;-85
2021/10/09 02:54:38;;;;;;;66.47;35.05;;;;;;;;;;5033802;28;20112;-85
2021/10/09 02:57:03;;;;;;;48.80;29.50;;;;;;;;;;5033815;28;20028;-85
2021/10/09 02:59:29;;;;;;;29.17;21.45;;;;;;;;;;5033971;28;20067;-85
2021/10/09 03:01:54;;;;;;;38.13;25.80;;;;;;;;;;5033753;28;20028;-85
2021/10/09 03:04:19;;;;;;;33.20;24.80;;;;;;;;;;5033633;28;20031;-85
2021/10/09 03:06:44;;;;;;;40.40;26.23;;;;;;;;;;5051435;28;20713;-85
2021/10/09 03:09:09;;;;;;;32.63;24.00;;;;;;;;;;5051572;28;20473;-85
2021/10/09 03:11:34;;;;;;;56.10;31.27;;;;;;;;;;5051515;28;20260;-85
2021/10/09 03:14:00;;;;;;;54.13;31.20;;;;;;;;;;5034348;28;20608;-85
2021/10/09 03:16:25;;;;;;;27.43;21.47;;;;;;;;;;5033426;28;20112;-85
2021/10/09 03:18:50;;;;;;;33.13;24.17;;;;;;;;;;5033415;28;20665;-85
2021/10/09 03:21:15;;;;;;;50.17;29.38;;;;;;;;;;5051431;28;20256;-85
2021/10/09 03:23:41;;;;;;;42.35;26.25;;;;;;;;;;5050985;28;20028;-85
2021/10/09 03:26:06;;;;;;;30.30;22.43;;;;;;;;;;5051123;28;20061;-85
2021/10/09 03:28:31;;;;;;;29.65;22.60;;;;;;;;;;5033812;28;20322;-85
2021/10/09 03:30:56;;;;;;;31.47;23.60;;;;;;;;;;5051058;28;20443;-85
2021/10/09 03:33:21;;;;;;;61.23;33.27;;;;;;;;;;5051227;28;20251;-85
2021/10/09 03:35:47;;;;;;;44.97;28.97;;;;;;;;;;5051108;28;20254;-85
2021/10/09 03:38:12;;;;;;;41.38;27.02;;;;;;;;;;5032932;28;20285;-85
2021/10/09 03:40:39;;;;;;;49.72;29.35;;;;;;;;;;5050842;28;20464;-85
2021/10/09 03:43:08;;;;;;;46.80;31.10;;;;;;;;;;5034951;28;20027;-85
2021/10/09 03:45:49;;;;;;;34.08;25.15;;;;;;;;;;5051253;28;20017;-85
2021/10/09 03:48:42;;;;;;;58.03;32.70;;;;;;;;;;5047391;28;20042;-85
2021/10/09 03:53:33;;;;;;;38.22;27.38;;;;;;;;;;5053347;28;20048;-85
2021/10/09 03:55:58;;;;;;;32.72;24.25;;;;;;;;;;5034442;28;20465;-85
2021/10/09 03:58:24;;;;;;;85.67;40.10;;;;;;;;;;5050692;28;20032;-85
2021/10/09 04:00:49;;;;;;;34.20;25.35;;;;;;;;;;5033006;28;20355;-85
2021/10/09 04:03:14;;;;;;;46.83;30.30;;;;;;;;;;5037880;28;20068;-85
2021/10/09 04:05:39;;;;;;;47.35;29.17;;;;;;;;;;5039408;28;20801;-85
2021/10/09 04:08:06;;;;;;;39.43;27.93;;;;;;;;;;5050394;28;20095;-85
2021/10/09 04:10:31;;;;;;;31.50;24.63;;;;;;;;;;5050514;28;20264;-85
2021/10/09 04:12:56;;;;;;;45.47;30.10;;;;;;;;;;5050711;28;20024;-85
2021/10/09 04:15:21;;;;;;;48.30;30.63;;;;;;;;;;5033138;28;20288;-85
2021/10/09 04:17:46;;;;;;;44.83;30.40;;;;;;;;;;5050372;28;20256;-85
2021/10/09 04:20:12;;;;;;;59.30;34.30;;;;;;;;;;5050402;28;20264;-85
2021/10/09 04:22:37;;;;;;;54.90;33.43;;;;;;;;;;5050469;28;20028;-85
2021/10/09 04:25:02;;;;;;;84.13;41.60;;;;;;;;;;5032289;28;20052;-86
2021/10/09 04:27:27;;;;;;;51.70;31.92;;;;;;;;;;5032450;28;20303;-85
2021/10/09 04:29:53;;;;;;;76.07;40.50;;;;;;;;;;5051249;28;20106;-85
2021/10/09 04:32:18;;;;;;;58.45;36.03;;;;;;;;;;5050292;28;20274;-85
2021/10/09 04:34:43;;;;;;;60.53;37.03;;;;;;;;;;5032529;28;20493;-85
2021/10/09 04:37:08;;;;;;;65.63;39.03;;;;;;;;;;5036379;28;20025;-85
2021/10/09 04:39:33;;;;;;;82.38;42.45;;;;;;;;;;5036268;28;20774;-85
2021/10/09 04:41:59;;;;;;;83.63;44.83;;;;;;;;;;5054380;28;20883;-85
2021/10/09 04:44:24;;;;;;;83.50;44.30;;;;;;;;;;5055783;28;20264;-85
2021/10/09 04:46:49;;;;;;;45.85;32.78;;;;;;;;;;5055800;28;20299;-85
2021/10/09 04:49:15;;;;;;;46.50;34.00;;;;;;;;;;5036025;28;20017;-85
2021/10/09 04:51:40;;;;;;;55.85;36.47;;;;;;;;;;5036198;28;20017;-85
2021/10/09 04:54:05;;;;;;;58.70;36.50;;;;;;;;;;5054180;28;20024;-85
2021/10/09 04:56:31;;;;;;;94.40;47.25;;;;;;;;;;5054058;28;20056;-85
2021/10/09 04:58:56;;;;;;;94.60;48.35;;;;;;;;;;5054013;28;20021;-85
2021/10/09 05:01:21;;;;;;;48.73;34.53;;;;;;;;;;5054659;28;20056;-85
2021/10/09 05:03:46;;;;;;;49.43;34.93;;;;;;;;;;5054424;28;20070;-85
2021/10/09 05:06:11;;;;;;;67.70;40.77;;;;;;;;;;5037416;28;20314;-85
2021/10/09 05:08:37;;;;;;;96.75;47.47;;;;;;;;;;5057950;28;20792;-85
2021/10/09 05:11:02;;;;;;;71.47;40.40;;;;;;;;;;5038926;28;20025;-85
2021/10/09 05:13:28;;;;;;;98.68;50.47;;;;;;;;;;5039022;28;20264;-85
2021/10/09 05:15:53;;;;;;;57.17;38.35;;;;;;;;;;5057351;28;20029;-85
2021/10/09 05:18:18;;;;;;;63.87;39.00;;;;;;;;;;5056554;28;20017;-85
2021/10/09 05:20:43;;;;;;;131.10;54.08;;;;;;;;;;5038677;28;20285;-85
2021/10/09 05:23:08;;;;;;;66.70;41.17;;;;;;;;;;5056604;28;20016;-85
2021/10/09 05:25:36;;;;;;;78.55;44.72;;;;;;;;;;5038171;28;20151;-85
2021/10/09 05:28:14;;;;;;;59.97;37.78;;;;;;;;;;5056393;28;20602;-85
2021/10/09 05:30:46;;;;;;;51.45;35.35;;;;;;;;;;5038955;28;20029;-85
2021/10/09 05:35:55;;;;;;;68.53;40.20;;;;;;;;;;5056734;28;20636;-85
2021/10/09 05:38:20;;;;;;;77.35;43.17;;;;;;;;;;5056228;28;20044;-85
2021/10/09 05:40:47;;;;;;;74.35;44.50;;;;;;;;;;5056187;28;20013;-85
2021/10/09 05:43:12;;;;;;;62.17;38.78;;;;;;;;;;5037545;28;20040;-85
2021/10/09 05:45:38;;;;;;;62.33;39.25;;;;;;;;;;5037872;28;20017;-85
2021/10/09 05:48:03;;;;;;;62.92;36.95;;;;;;;;;;5037088;28;20056;-85
2021/10/09 05:50:36;;;;;;;67.13;39.83;;;;;;;;;;5037988;28;20021;-86
2021/10/09 05:53:13;;;;;;;54.80;37.83;;;;;;;;;;5055656;28;20032;-85
2021/10/09 05:56:01;;;;;;;69.65;42.50;;;;;;;;;;5035054;28;20132;-85
2021/10/09 05:58:45;;;;;;;74.47;41.15;;;;;;;;;;5052994;28;20028;-85
2021/10/09 07:00:05;;;;;;;55.05;36.20;;;;;;;;;;5051833;28;20027;-85
2021/10/09 07:02:35;;;;;;;56.67;38.40;;;;;;;;;;5033558;28;20021;-85
2021/10/09 07:05:01;;;;;;;50.45;35.05;;;;;;;;;;5051717;28;20049;-85
2021/10/09 07:07:26;;;;;;;61.03;38.28;;;;;;;;;;5026275;28;20844;-85
2021/10/09 07:09:52;;;;;;;47.13;32.17;;;;;;;;;;5014803;28;20025;-85
2021/10/09 07:12:17;;;;;;;47.65;32.63;;;;;;;;;;5013493;28;20179;-85
2021/10/09 07:14:42;;;;;;;54.40;35.20;;;;;;;;;;5031443;28;20465;-85
2021/10/09 07:17:08;;;;;;;52.25;33.72;;;;;;;;;;5031292;28;20028;-85
2021/10/09 07:19:33;;;;;;;54.60;35.00;;;;;;;;;;5022922;28;20009;-86
2021/10/09 07:21:59;;;;;;;55.33;35.22;;;;;;;;;;5053454;28;20071;-86
2021/10/09 07:24:24;;;;;;;65.72;39.78;;;;;;;;;;5052531;28;20073;-85
2021/10/09 07:26:49;;;;;;;53.72;31.73;;;;;;;;;;5033008;28;20048;-85
2021/10/09 07:29:14;;;;;;;55.83;37.03;;;;;;;;;;5029661;28;20033;-85
2021/10/09 07:31:40;;;;;;;57.53;37.97;;;;;;;;;;5030932;28;20036;-85
2021/10/09 07:34:05;;;;;;;66.20;40.53;;;;;;;;;;5013082;28;20260;-85
2021/10/09 07:36:30;;;;;;;52.72;36.70;;;;;;;;;;5015738;28;20017;-85
2021/10/09 07:38:56;;;;;;;47.38;32.85;;;;;;;;;;5050901;28;20170;-85
2021/10/09 07:41:21;;;;;;;67.97;41.40;;;;;;;;;;5050899;28;20790;-85
2021/10/09 07:43:47;;;;;;;66.00;39.13;;;;;;;;;;5032998;28;20021;-85
2021/10/09 07:46:12;;;;;;;58.75;35.55;;;;;;;;;;5050721;28;20029;-85
2021/10/09 07:48:37;;;;;;;53.63;34.05;;;;;;;;;;5032553;28;20025;-85
2021/10/09 07:51:04;;;;;;;55.77;35.10;;;;;;;;;;5032883;28;20025;-85
2021/10/09 07:53:30;;;;;;;47.85;31.85;;;;;;;;;;5050841;28;20263;-85
2021/10/09 07:55:55;;;;;;;57.20;36.70;;;;;;;;;;5032381;28;20025;-85
2021/10/09 07:58:20;;;;;;;57.20;36.67;;;;;;;;;;5032425;28;20758;-85
2021/10/09 08:00:45;;;;;;;59.15;36.53;;;;;;;;;;5032720;28;20278;-86
2021/10/09 08:03:10;;;;;;;61.53;36.93;;;;;;;;;;5050399;28;20025;-85
2021/10/09 08:05:37;;;;;;;50.08;33.97;;;;;;;;;;5050287;28;20259;-85
2021/10/09 08:08:02;;;;;;;56.97;35.25;;;;;;;;;;5034568;28;20062;-85
2021/10/09 08:10:28;;;;;;;45.20;31.95;;;;;;;;;;5031420;28;20103;-85
2021/10/09 08:12:53;;;;;;;50.55;33.20;;;;;;;;;;5050361;28;20048;-85
2021/10/09 08:15:18;;;;;;;44.28;31.63;;;;;;;;;;5032601;28;20017;-85
2021/10/09 08:17:43;;;;;;;48.07;31.17;;;;;;;;;;5050432;28;20473;-85
2021/10/09 08:20:10;;;;;;;53.28;35.45;;;;;;;;;;5032585;28;20275;-85
2021/10/09 08:22:39;;;;;;;56.10;35.03;;;;;;;;;;5035604;28;20029;-85
2021/10/09 08:38:51;;;;;;;54.00;35.47;;;;;;;;;;5053987;28;20025;-85
2021/10/09 08:41:17;;;;;;;46.08;34.90;;;;;;;;;;5033217;28;20121;-85
2021/10/09 08:43:44;;;;;;;44.63;32.78;;;;;;;;;;5032122;28;20823;-86
2021/10/09 08:46:09;;;;;;;47.00;32.97;;;;;;;;;;5031728;28;20035;-86
2021/10/09 08:48:40;;;;;;;53.20;34.33;;;;;;;;;;5049849;28;20468;-85
2021/10/09 08:51:06;;;;;;;;;;;;;;;;;;5050388;28;20539;-86
2021/10/09 08:53:38;;;;;;;50.05;32.70;;;;;;;;;;5049864;28;19908;-86
2021/10/09 08:56:04;;;;;;;50.22;32.13;;;;;;;;;;5051773;28;20108;-85
2021/10/09 08:58:31;;;;;;;42.38;30.65;;;;;;;;;;5050658;28;20853;-86
2021/10/09 09:03:30;;;;;;;42.45;29.42;;;;;;;;;;5050074;28;20446;-86
2021/10/09 09:06:15;;;;;;;46.92;28.30;;;;;;;;;;5031530;28;20037;-85
2021/10/09 09:25:41;;;;;;;40.20;19.27;;;;;;;;;;5053478;28;20067;-85
2021/10/09 09:41:18;;;;;;;18.95;13.65;;;;;;;;;;5054548;28;20108;-85
2021/10/09 09:43:44;;;;;;;28.85;15.15;;;;;;;;;;5057092;28;20037;-85
2021/10/09 09:46:15;;;;;;;23.70;14.60;;;;;;;;;;5053047;28;20087;-85
2021/10/09 09:48:41;;;;;;;;;;;;;;;;;;5035379;28;20049;-86
2021/10/09 09:51:06;;;;;;;22.20;14.52;;;;;;;;;;5052959;28;19963;-85
2021/10/09 09:53:33;;;;;;;24.35;13.40;;;;;;;;;;5053078;28;20021;-85
2021/10/09 09:55:59;;;;;;;25.38;12.93;;;;;;;;;;5035651;28;20021;-86
2021/10/09 09:58:24;;;;;;;32.42;13.82;;;;;;;;;;5055378;28;20044;-85
2021/10/09 10:00:52;;;;;;;23.33;13.55;;;;;;;;;;5034439;28;20435;-85
2021/10/09 10:03:22;;;;;;;34.05;13.68;;;;;;;;;;5052695;28;20025;-86
2021/10/09 10:05:47;;;;;;;25.00;12.55;;;;;;;;;;5035243;28;20021;-85
2021/10/09 10:08:12;;;;;;;32.23;14.20;;;;;;;;;;5052949;28;20056;-86
2021/10/09 10:10:37;;;;;;;31.17;13.10;;;;;;;;;;5035177;28;20252;-86
2021/10/09 10:13:03;;;;;;;24.70;12.90;;;;;;;;;;5052352;28;20040;-86
2021/10/09 10:15:29;;;;;;;21.17;11.73;;;;;;;;;;5034446;28;20812;-85
2021/10/09 10:17:54;;;;;;;23.00;12.48;;;;;;;;;;5052652;28;20024;-86
2021/10/09 10:20:21;;;;;;;21.50;12.30;;;;;;;;;;5034321;28;20044;-85
2021/10/09 10:22:49;;;;;;;22.80;13.02;;;;;;;;;;5052180;28;20388;-86
2021/10/09 10:25:23;;;;;;;23.77;11.25;;;;;;;;;;5033673;28;20515;-86
2021/10/09 10:27:58;;;;;;;21.77;10.82;;;;;;;;;;5032507;28;20030;-85
2021/10/09 10:30:24;;;;;;;28.10;11.40;;;;;;;;;;5052038;28;20048;-85
2021/10/09 10:32:55;;;;;;;24.15;10.02;;;;;;;;;;5034859;28;20025;-85
2021/10/09 10:35:29;;;;;;;27.83;10.55;;;;;;;;;;5034020;28;20035;-85
2021/10/09 10:38:08;;;;;;;20.65;9.77;;;;;;;;;;5052022;28;20032;-86
2021/10/09 10:40:43;;;;;;;23.73;10.10;;;;;;;;;;5051861;28;20017;-86
2021/10/09 10:43:27;;;;;;;26.60;11.07;;;;;;;;;;5051986;28;20021;-86
2021/10/09 10:45:52;;;;;;;18.77;9.65;;;;;;;;;;5033713;28;20571;-86
2021/10/09 10:48:36;;;;;;;20.90;9.80;;;;;;;;;;5035900;28;20029;-86
2021/10/09 10:51:13;;;;;;;23.50;8.73;;;;;;;;;;5030444;28;20056;-86
2021/10/09 10:53:50;;;;;;;29.95;9.57;;;;;;;;;;5049044;28;20052;-86
2021/10/09 10:56:15;;;;;;;23.10;9.20;;;;;;;;;;5033729;28;20104;-85
2021/10/09 10:58:41;;;;;;;20.07;9.57;;;;;;;;;;5051606;28;20108;-85
2021/10/09 11:01:19;;;;;;;27.52;8.85;;;;;;;;;;5051060;28;20362;-85
2021/10/09 11:03:47;;;;;;;27.58;9.40;;;;;;;;;;5051395;28;20060;-86
2021/10/09 11:06:13;;;;;;;23.75;9.18;;;;;;;;;;5053531;28;20085;-86
2021/10/09 11:08:41;;;;;;;23.45;8.85;;;;;;;;;;5033363;28;20527;-85
2021/10/09 11:11:06;;;;;;;29.30;9.75;;;;;;;;;;5033309;28;20024;-85
2021/10/09 11:13:31;;;;;;;19.77;8.60;;;;;;;;;;5051191;28;20108;-85
2021/10/09 11:15:58;;;;;;;20.45;8.45;;;;;;;;;;5033411;28;20108;-85
2021/10/09 11:18:23;;;;;;;35.35;10.10;;;;;;;;;;5049247;28;20495;-86
2021/10/09 11:20:48;;;;;;;17.90;8.93;;;;;;;;;;5053838;28;20025;-86
2021/10/09 11:23:13;;;;;;;28.27;9.85;;;;;;;;;;5035722;28;20301;-85
2021/10/09 11:25:40;;;;;;;21.40;9.32;;;;;;;;;;5051862;28;20072;-85
2021/10/09 11:28:16;;;;;;;18.27;7.88;;;;;;;;;;5029545;28;20022;-85
2021/10/09 11:30:41;;;;;;;23.73;9.63;;;;;;;;;;5031125;28;20022;-86
2021/10/09 11:33:06;;;;;;;18.13;7.72;;;;;;;;;;5013058;28;20087;-85
2021/10/09 11:35:36;;;;;;;21.87;8.70;;;;;;;;;;5033529;28;20025;-86
2021/10/09 11:38:03;;;;;;;18.85;9.65;;;;;;;;;;5031798;28;20593;-85
2021/10/09 11:40:51;;;;;;;20.60;8.18;;;;;;;;;;5047852;28;20554;-86
2021/10/09 11:45:48;;;;;;;25.50;9.93;;;;;;;;;;5050323;28;20823;-86
2021/10/09 11:56:30;;;;;;;20.98;9.98;;;;;;;;;;5050675;28;20123;-85
2021/10/09 11:58:59;;;;;;;19.42;9.38;;;;;;;;;;5032711;28;20119;-86
2021/10/09 12:01:35;;;;;;;32.17;9.85;;;;;;;;;;5032457;28;20016;-86
2021/10/09 12:04:17;;;;;;;18.85;9.25;;;;;;;;;;5032153;28;20083;-86
2021/10/09 12:06:56;;;;;;;22.42;9.23;;;;;;;;;;5032249;28;20130;-86
2021/10/09 12:09:33;;;;;;;23.27;9.48;;;;;;;;;;5048851;28;20078;-86
2021/10/09 12:12:17;;;;;;;21.73;8.60;;;;;;;;;;5051817;28;20021;-86
2021/10/09 12:14:43;;;;;;;17.33;8.98;;;;;;;;;;5031788;28;20052;-86
2021/10/09 12:17:09;;;;;;;16.63;9.05;;;;;;;;;;5031882;28;20515;-85
2021/10/09 12:19:34;;;;;;;24.27;10.07;;;;;;;;;;5050067;28;20017;-86
2021/10/09 12:22:03;;;;;;;18.42;9.52;;;;;;;;;;5050085;28;20020;-86
2021/10/09 12:24:34;;;;;;;14.80;9.60;;;;;;;;;;5049876;28;20564;-86
2021/10/09 12:27:04;;;;;;;20.88;10.10;;;;;;;;;;5028455;28;20045;-86
2021/10/09 12:29:30;;;;;;;22.33;10.20;;;;;;;;;;5040287;28;20100;-86
2021/10/09 12:31:56;;;;;;;18.88;9.57;;;;;;;;;;5049956;28;20777;-86
2021/10/09 12:34:24;;;;;;;28.67;8.85;;;;;;;;;;5047608;28;20021;-86
2021/10/09 12:37:07;;;;;;;26.98;9.35;;;;;;;;;;5031743;28;20061;-86
2021/10/09 12:39:33;;;;;;;20.42;9.07;;;;;;;;;;5047932;28;20029;-86
2021/10/09 12:41:58;;;;;;;19.95;9.82;;;;;;;;;;5050057;28;20021;-86
2021/10/09 12:44:24;;;;;;;21.83;9.10;;;;;;;;;;5031910;28;20017;-86
2021/10/09 12:46:49;;;;;;;15.80;8.70;;;;;;;;;;5031334;28;20756;-86
2021/10/09 12:49:16;;;;;;;15.73;9.13;;;;;;;;;;5032768;28;20020;-86
2021/10/09 12:51:42;;;;;;;20.02;8.95;;;;;;;;;;5049935;28;20013;-86
2021/10/09 12:54:08;;;;;;;21.63;8.85;;;;;;;;;;5049697;28;20021;-86
2021/10/09 12:56:34;;;;;;;14.55;8.13;;;;;;;;;;5033154;28;20028;-86
2021/10/09 12:58:59;;;;;;;15.38;8.30;;;;;;;;;;5053584;28;20051;-86
2021/10/09 13:01:24;;;;;;;21.60;8.93;;;;;;;;;;5053576;28;20052;-86
2021/10/09 13:03:50;;;;;;;15.27;7.77;;;;;;;;;;5053464;28;20024;-86
2021/10/09 13:06:15;;;;;;;20.05;8.20;;;;;;;;;;5036996;28;20037;-87
2021/10/09 13:08:40;;;;;;;16.77;8.67;;;;;;;;;;5053251;28;20029;-86
2021/10/09 13:11:06;;;;;;;21.17;9.50;;;;;;;;;;5035172;28;20791;-86
2021/10/09 13:13:31;;;;;;;19.63;8.43;;;;;;;;;;5032065;28;20060;-86
2021/10/09 13:15:56;;;;;;;18.67;9.90;;;;;;;;;;5052481;28;20263;-86
2021/10/09 13:18:21;;;;;;;18.90;8.40;;;;;;;;;;5052753;28;20094;-86
2021/10/09 13:20:46;;;;;;;15.53;8.60;;;;;;;;;;5032336;28;20267;-87
2021/10/09 13:23:12;;;;;;;20.00;8.43;;;;;;;;;;5051205;28;20064;-86
2021/10/09 13:25:37;;;;;;;19.53;8.50;;;;;;;;;;5052972;28;20080;-86
2021/10/09 13:28:04;;;;;;;15.27;8.48;;;;;;;;;;5031790;28;20288;-86
2021/10/09 13:30:30;;;;;;;20.27;9.10;;;;;;;;;;5033192;28;20030;-87
2021/10/09 13:32:55;;;;;;;18.70;8.88;;;;;;;;;;5033676;28;20652;-87
2021/10/09 13:35:20;;;;;;;15.37;9.33;;;;;;;;;;5035244;28;20109;-87
2021/10/09 13:37:49;;;;;;;19.25;10.15;;;;;;;;;;5015253;28;20018;-87
2021/10/09 13:40:14;;;;;;;17.83;10.23;;;;;;;;;;5015129;28;20116;-87
2021/10/09 13:42:42;;;;;;;22.25;10.57;;;;;;;;;;5032996;28;20109;-87
2021/10/09 13:45:07;;;;;;;15.10;9.38;;;;;;;;;;5015208;28;20103;-87
2021/10/09 13:47:32;;;;;;;23.05;9.80;;;;;;;;;;5032815;28;20065;-87
2021/10/09 13:49:58;;;;;;;15.93;10.50;;;;;;;;;;5032812;28;20022;-87
2021/10/09 13:52:23;;;;;;;19.47;10.07;;;;;;;;;;5033808;28;20021;-87
2021/10/09 13:54:48;;;;;;;24.07;10.07;;;;;;;;;;5013346;28;20032;-87
2021/10/09 13:57:13;;;;;;;17.90;9.57;;;;;;;;;;5033752;28;20017;-86
2021/10/09 13:59:38;;;;;;;20.00;10.10;;;;;;;;;;5034632;28;20048;-87
2021/10/09 14:02:04;;;;;;;24.67;10.47;;;;;;;;;;5035067;28;20029;-87
2021/10/09 14:04:36;;;;;;;21.73;10.95;;;;;;;;;;5052628;28;20287;-86
2021/10/09 14:07:01;;;;;;;78.03;15.48;;;;;;;;;;5034336;28;20502;-87
2021/10/09 14:09:27;;;;;;;29.35;12.00;;;;;;;;;;5034254;28;20024;-87
2021/10/09 14:11:53;;;;;;;22.77;11.07;;;;;;;;;;5034185;28;20025;-87
2021/10/09 14:14:20;;;;;;;24.33;11.10;;;;;;;;;;5052310;28;20044;-86
2021/10/09 14:16:45;;;;;;;21.55;12.10;;;;;;;;;;5034528;28;20477;-87
2021/10/09 14:19:10;;;;;;;18.13;10.67;;;;;;;;;;5050450;28;20082;-87
2021/10/09 14:21:35;;;;;;;26.40;11.00;;;;;;;;;;5034119;28;20052;-87
2021/10/09 14:24:01;;;;;;;18.33;10.40;;;;;;;;;;5052911;28;20806;-86
2021/10/09 14:26:26;;;;;;;19.97;12.00;;;;;;;;;;5048202;28;20076;-87
2021/10/09 14:28:51;;;;;;;18.90;11.33;;;;;;;;;;5050729;28;20033;-87
2021/10/09 14:31:16;;;;;;;15.90;11.30;;;;;;;;;;5051856;28;20053;-87
2021/10/09 14:33:41;;;;;;;19.15;10.95;;;;;;;;;;5033730;28;20843;-87
2021/10/09 14:36:07;;;;;;;24.67;10.37;;;;;;;;;;5052058;28;20024;-87
2021/10/09 14:38:32;;;;;;;16.73;10.87;;;;;;;;;;5047113;28;20523;-87
2021/10/09 14:40:59;;;;;;;17.77;10.70;;;;;;;;;;5050258;28;20017;-88
2021/10/09 14:43:24;;;;;;;18.58;11.25;;;;;;;;;;5045739;28;20052;-88
2021/10/09 14:45:52;;;;;;;27.53;12.30;;;;;;;;;;5028864;28;20025;-87
2021/10/09 14:48:21;;;;;;;23.65;11.10;;;;;;;;;;5048110;28;20027;-87
2021/10/09 14:51:09;;;;;;;17.63;11.48;;;;;;;;;;5030377;28;20013;-88
2021/10/09 15:20:24;;;;;;;24.85;13.38;;;;;;;;;;5048069;28;20032;-87
2021/10/09 15:22:49;;;;;;;20.97;12.47;;;;;;;;;;5048036;28;20017;-87
2021/10/09 15:25:15;;;;;;;25.33;12.37;;;;;;;;;;5030101;28;20084;-87
2021/10/09 15:27:40;;;;;;;23.13;12.10;;;;;;;;;;5047570;28;20037;-87
2021/10/09 15:30:05;;;;;;;21.23;13.23;;;;;;;;;;5047480;28;20317;-87
2021/10/09 15:32:31;;;;;;;21.05;12.35;;;;;;;;;;5047946;28;20047;-87
2021/10/09 15:34:56;;;;;;;27.63;12.13;;;;;;;;;;5026160;28;20025;-87
2021/10/09 15:37:22;;;;;;;25.23;12.20;;;;;;;;;;5016407;28;20268;-87
2021/10/09 15:39:47;;;;;;;24.83;11.50;;;;;;;;;;5039233;28;20021;-87
2021/10/09 15:42:13;;;;;;;21.48;12.35;;;;;;;;;;5030241;28;20391;-87
2021/10/09 15:44:38;;;;;;;31.33;12.88;;;;;;;;;;5032064;28;20021;-87
2021/10/09 15:47:03;;;;;;;24.27;12.77;;;;;;;;;;5029647;28;20576;-87
2021/10/09 15:49:29;;;;;;;18.52;10.75;;;;;;;;;;5048122;28;20260;-87
2021/10/09 15:51:55;;;;;;;22.50;11.32;;;;;;;;;;5026135;28;20029;-87
2021/10/09 15:54:20;;;;;;;23.38;12.05;;;;;;;;;;5027178;28;20033;-87
2021/10/09 15:56:45;;;;;;;27.83;12.20;;;;;;;;;;5028657;28;20021;-87
2021/10/09 15:59:10;;;;;;;18.97;11.33;;;;;;;;;;5047401;28;20013;-87
2021/10/09 16:01:35;;;;;;;24.27;12.03;;;;;;;;;;5046999;28;20267;-87
2021/10/09 16:04:01;;;;;;;24.20;12.10;;;;;;;;;;5029086;28;20286;-87
2021/10/09 16:06:27;;;;;;;21.23;11.95;;;;;;;;;;5046999;28;20035;-87
2021/10/09 16:08:53;;;;;;;26.08;10.98;;;;;;;;;;5048047;28;20461;-87
2021/10/09 16:11:18;;;;;;;20.00;10.70;;;;;;;;;;5032444;28;20021;-87
2021/10/09 16:13:43;;;;;;;21.83;11.52;;;;;;;;;;5054251;28;20053;-87
2021/10/09 16:16:09;;;;;;;21.27;10.60;;;;;;;;;;5029375;28;20037;-88
2021/10/09 16:18:34;;;;;;;26.20;12.32;;;;;;;;;;5030428;28;20794;-89
2021/10/09 16:21:00;;;;;;;18.30;12.20;;;;;;;;;;5030504;28;20099;-88
2021/10/09 16:23:25;;;;;;;24.67;11.40;;;;;;;;;;5023959;28;20256;-90
2021/10/09 16:25:51;;;;;;;18.63;11.45;;;;;;;;;;5011903;28;20700;-89
2021/10/09 16:28:17;;;;;;;23.38;10.70;;;;;;;;;;5012384;28;20116;-90
2021/10/09 16:30:43;;;;;;;22.23;10.88;;;;;;;;;;5012005;28;20113;-89
2021/10/09 16:33:08;;;;;;;20.90;11.50;;;;;;;;;;5031451;23;20057;-90
2021/10/09 16:35:33;;;;;;;18.87;10.53;;;;;;;;;;5012561;28;20072;-89
2021/10/09 16:37:59;;;;;;;28.17;11.30;;;;;;;;;;5012235;28;20264;-90
2021/10/09 16:40:24;;;;;;;18.98;11.10;;;;;;;;;;5030414;28;20468;-87
2021/10/09 16:42:53;;;;;;;18.73;10.63;;;;;;;;;;5030242;28;20032;-91
2021/10/09 16:45:18;;;;;;;16.42;10.48;;;;;;;;;;5027857;23;20435;-88
2021/10/09 16:47:44;;;;;;;25.93;11.10;;;;;;;;;;5049281;28;20062;-88
2021/10/09 16:50:09;;;;;;;17.60;10.73;;;;;;;;;;5048750;28;20271;-88
2021/10/09 16:52:34;;;;;;;22.08;11.23;;;;;;;;;;5044650;28;20021;-88
2021/10/09 16:54:59;;;;;;;24.42;12.30;;;;;;;;;;5049610;28;20025;-88
2021/10/09 16:57:25;;;;;;;22.13;11.50;;;;;;;;;;5050449;28;20091;-88